sensor_id;sensor_type;location;lat;lon;timestamp;temperature;humidity
16315;DHT22;8266;52.150;4.768;2023-02-28T00:00:10;6.00;99.90
16315;DHT22;8266;52.150;4.768;2023-02-28T00:02:38;6.10;99.90
16315;DHT22;8266;52.150;4.768;2023-02-28T00:05:07;6.10;99.90
16315;DHT22;8266;52.150;4.768;2023-02-28T00:07:35;6.10;99.90
16315;DHT22;8266;52.150;4.768;2023-02-28T00:10:03;6.10;99.90
16315;DHT22;8266;52.150;4.768;2023-02-28T00:12:31;6.20;99.90
16315;DHT22;8266;52.150;4.768;2023-02-28T00:14:58;6.20;99.90
16315;DHT22;8266;52.150;4.768;2023-02-28T00:17:25;6.20;99.90
16315;DHT22;8266;52.150;4.768;2023-02-28T00:19:52;6.20;99.90
16315;DHT22;8266;52.150;4.768;2023-02-28T00:22:20;6.20;99.90
16315;DHT22;8266;52.150;4.768;2023-02-28T00:24:47;6.20;99.90
16315;DHT22;8266;52.150;4.768;2023-02-28T00:27:15;6.30;99.90
16315;DHT22;8266;52.150;4.768;2023-02-28T00:29:43;6.30;99.90
16315;DHT22;8266;52.150;4.768;2023-02-28T00:32:10;6.30;99.90
16315;DHT22;8266;52.150;4.768;2023-02-28T00:34:37;6.30;99.90
16315;DHT22;8266;52.150;4.768;2023-02-28T00:37:05;6.30;99.90
16315;DHT22;8266;52.150;4.768;2023-02-28T00:39:34;6.40;99.90
16315;DHT22;8266;52.150;4.768;2023-02-28T00:42:02;6.30;99.90
16315;DHT22;8266;52.150;4.768;2023-02-28T00:44:29;6.30;99.90
16315;DHT22;8266;52.150;4.768;2023-02-28T00:46:58;6.40;99.90
16315;DHT22;8266;52.150;4.768;2023-02-28T00:49:26;6.40;99.90
16315;DHT22;8266;52.150;4.768;2023-02-28T00:51:54;6.40;99.90
16315;DHT22;8266;52.150;4.768;2023-02-28T00:54:21;6.40;99.90
16315;DHT22;8266;52.150;4.768;2023-02-28T00:56:49;6.40;99.90
16315;DHT22;8266;52.150;4.768;2023-02-28T00:59:17;6.40;99.90
16315;DHT22;8266;52.150;4.768;2023-02-28T01:01:45;6.40;99.90
16315;DHT22;8266;52.150;4.768;2023-02-28T01:04:14;6.40;99.90
16315;DHT22;8266;52.150;4.768;2023-02-28T01:06:42;6.40;99.90
16315;DHT22;8266;52.150;4.768;2023-02-28T01:09:09;6.40;99.90
16315;DHT22;8266;52.150;4.768;2023-02-28T01:11:37;6.40;99.90
16315;DHT22;8266;52.150;4.768;2023-02-28T01:14:04;6.50;99.90
16315;DHT22;8266;52.150;4.768;2023-02-28T01:16:31;6.50;99.90
16315;DHT22;8266;52.150;4.768;2023-02-28T01:18:58;6.50;99.90
16315;DHT22;8266;52.150;4.768;2023-02-28T01:21:28;6.50;99.90
16315;DHT22;8266;52.150;4.768;2023-02-28T01:23:56;6.50;99.90
16315;DHT22;8266;52.150;4.768;2023-02-28T01:26:23;6.50;99.90
16315;DHT22;8266;52.150;4.768;2023-02-28T01:28:52;6.50;99.90
16315;DHT22;8266;52.150;4.768;2023-02-28T01:31:20;6.50;99.90
16315;DHT22;8266;52.150;4.768;2023-02-28T01:33:47;6.50;99.90
16315;DHT22;8266;52.150;4.768;2023-02-28T01:36:17;6.50;99.90
16315;DHT22;8266;52.150;4.768;2023-02-28T01:38:46;6.50;99.90
16315;DHT22;8266;52.150;4.768;2023-02-28T01:41:16;6.50;99.90
16315;DHT22;8266;52.150;4.768;2023-02-28T01:43:59;6.50;99.90
16315;DHT22;8266;52.150;4.768;2023-02-28T01:46:29;6.70;99.90
16315;DHT22;8266;52.150;4.768;2023-02-28T01:49:01;6.60;99.90
16315;DHT22;8266;52.150;4.768;2023-02-28T01:51:33;6.60;99.90
16315;DHT22;8266;52.150;4.768;2023-02-28T01:54:05;6.60;99.90
16315;DHT22;8266;52.150;4.768;2023-02-28T01:56:41;6.60;99.90
16315;DHT22;8266;52.150;4.768;2023-02-28T01:59:13;6.60;99.90
16315;DHT22;8266;52.150;4.768;2023-02-28T02:01:41;6.60;99.90
16315;DHT22;8266;52.150;4.768;2023-02-28T02:04:09;6.60;99.90
16315;DHT22;8266;52.150;4.768;2023-02-28T02:06:39;6.60;99.90
16315;DHT22;8266;52.150;4.768;2023-02-28T02:09:08;6.70;99.90
16315;DHT22;8266;52.150;4.768;2023-02-28T02:11:36;6.60;99.90
16315;DHT22;8266;52.150;4.768;2023-02-28T02:14:17;6.60;99.90
16315;DHT22;8266;52.150;4.768;2023-02-28T02:16:55;6.60;99.90
16315;DHT22;8266;52.150;4.768;2023-02-28T02:19:46;6.60;99.90
16315;DHT22;8266;52.150;4.768;2023-02-28T02:22:35;6.60;99.90
16315;DHT22;8266;52.150;4.768;2023-02-28T02:25:14;6.60;99.90
16315;DHT22;8266;52.150;4.768;2023-02-28T02:31:03;6.60;99.90
16315;DHT22;8266;52.150;4.768;2023-02-28T02:36:25;6.70;99.90
16315;DHT22;8266;52.150;4.768;2023-02-28T02:38:59;6.70;99.90
16315;DHT22;8266;52.150;4.768;2023-02-28T02:41:34;6.70;99.90
16315;DHT22;8266;52.150;4.768;2023-02-28T02:44:06;6.70;99.90
16315;DHT22;8266;52.150;4.768;2023-02-28T02:46:35;6.70;99.90
16315;DHT22;8266;52.150;4.768;2023-02-28T02:49:06;6.70;99.90
16315;DHT22;8266;52.150;4.768;2023-02-28T02:51:36;6.70;99.90
16315;DHT22;8266;52.150;4.768;2023-02-28T02:54:08;6.70;99.90
16315;DHT22;8266;52.150;4.768;2023-02-28T02:56:36;6.70;99.90
16315;DHT22;8266;52.150;4.768;2023-02-28T02:59:08;6.70;99.90
16315;DHT22;8266;52.150;4.768;2023-02-28T03:01:38;6.70;99.90
16315;DHT22;8266;52.150;4.768;2023-02-28T03:04:09;6.70;99.90
16315;DHT22;8266;52.150;4.768;2023-02-28T03:06:38;6.70;99.90
16315;DHT22;8266;52.150;4.768;2023-02-28T03:09:05;6.70;99.90
16315;DHT22;8266;52.150;4.768;2023-02-28T03:11:32;6.70;99.90
16315;DHT22;8266;52.150;4.768;2023-02-28T03:14:11;6.70;99.90
16315;DHT22;8266;52.150;4.768;2023-02-28T03:16:54;6.70;99.90
16315;DHT22;8266;52.150;4.768;2023-02-28T03:19:37;6.70;99.90
16315;DHT22;8266;52.150;4.768;2023-02-28T03:22:16;6.70;99.90
16315;DHT22;8266;52.150;4.768;2023-02-28T03:24:52;6.70;99.90
16315;DHT22;8266;52.150;4.768;2023-02-28T03:27:26;6.70;99.90
16315;DHT22;8266;52.150;4.768;2023-02-28T03:29:59;6.70;99.90
16315;DHT22;8266;52.150;4.768;2023-02-28T03:32:29;6.70;99.90
16315;DHT22;8266;52.150;4.768;2023-02-28T03:35:01;6.70;99.90
16315;DHT22;8266;52.150;4.768;2023-02-28T03:37:35;6.80;99.90
16315;DHT22;8266;52.150;4.768;2023-02-28T03:40:06;6.70;99.90
16315;DHT22;8266;52.150;4.768;2023-02-28T03:42:40;6.70;99.90
16315;DHT22;8266;52.150;4.768;2023-02-28T03:45:11;6.70;99.90
16315;DHT22;8266;52.150;4.768;2023-02-28T03:47:43;6.70;99.90
16315;DHT22;8266;52.150;4.768;2023-02-28T03:50:14;6.70;99.90
16315;DHT22;8266;52.150;4.768;2023-02-28T03:52:47;6.70;99.90
16315;DHT22;8266;52.150;4.768;2023-02-28T03:55:16;6.80;99.90
16315;DHT22;8266;52.150;4.768;2023-02-28T03:57:53;6.80;99.90
16315;DHT22;8266;52.150;4.768;2023-02-28T04:00:27;6.80;99.90
16315;DHT22;8266;52.150;4.768;2023-02-28T04:02:56;6.70;99.90
16315;DHT22;8266;52.150;4.768;2023-02-28T04:05:24;6.80;99.90
16315;DHT22;8266;52.150;4.768;2023-02-28T04:07:53;6.80;99.90
16315;DHT22;8266;52.150;4.768;2023-02-28T04:10:20;6.80;99.90
16315;DHT22;8266;52.150;4.768;2023-02-28T04:12:48;6.80;99.90
16315;DHT22;8266;52.150;4.768;2023-02-28T04:15:15;6.80;99.90
16315;DHT22;8266;52.150;4.768;2023-02-28T04:17:42;6.80;99.90
16315;DHT22;8266;52.150;4.768;2023-02-28T04:20:10;6.80;99.90
16315;DHT22;8266;52.150;4.768;2023-02-28T04:22:37;6.80;99.90
16315;DHT22;8266;52.150;4.768;2023-02-28T04:25:07;6.80;99.90
16315;DHT22;8266;52.150;4.768;2023-02-28T04:27:34;6.80;99.90
16315;DHT22;8266;52.150;4.768;2023-02-28T04:30:01;6.80;99.90
16315;DHT22;8266;52.150;4.768;2023-02-28T04:32:28;6.80;99.90
16315;DHT22;8266;52.150;4.768;2023-02-28T04:34:55;6.80;99.90
16315;DHT22;8266;52.150;4.768;2023-02-28T04:37:22;6.80;99.90
16315;DHT22;8266;52.150;4.768;2023-02-28T04:39:53;6.80;99.90
16315;DHT22;8266;52.150;4.768;2023-02-28T04:42:22;6.90;99.90
16315;DHT22;8266;52.150;4.768;2023-02-28T04:44:49;6.90;99.90
16315;DHT22;8266;52.150;4.768;2023-02-28T04:47:16;6.90;99.90
16315;DHT22;8266;52.150;4.768;2023-02-28T04:49:43;6.90;99.90
16315;DHT22;8266;52.150;4.768;2023-02-28T04:52:10;6.90;99.90
16315;DHT22;8266;52.150;4.768;2023-02-28T04:54:38;6.90;99.90
16315;DHT22;8266;52.150;4.768;2023-02-28T04:57:05;6.90;99.90
16315;DHT22;8266;52.150;4.768;2023-02-28T04:59:34;6.90;99.90
16315;DHT22;8266;52.150;4.768;2023-02-28T05:02:01;6.90;99.90
16315;DHT22;8266;52.150;4.768;2023-02-28T05:04:32;6.90;99.90
16315;DHT22;8266;52.150;4.768;2023-02-28T05:07:00;6.90;99.90
16315;DHT22;8266;52.150;4.768;2023-02-28T05:09:27;6.90;99.90
16315;DHT22;8266;52.150;4.768;2023-02-28T05:11:55;6.90;99.90
16315;DHT22;8266;52.150;4.768;2023-02-28T05:14:22;6.90;99.90
16315;DHT22;8266;52.150;4.768;2023-02-28T05:16:50;6.90;99.90
16315;DHT22;8266;52.150;4.768;2023-02-28T05:19:17;6.90;99.90
16315;DHT22;8266;52.150;4.768;2023-02-28T05:21:51;6.90;99.90
16315;DHT22;8266;52.150;4.768;2023-02-28T05:24:18;6.90;99.90
16315;DHT22;8266;52.150;4.768;2023-02-28T05:26:49;6.90;99.90
16315;DHT22;8266;52.150;4.768;2023-02-28T05:29:17;6.90;99.90
16315;DHT22;8266;52.150;4.768;2023-02-28T05:31:44;6.90;99.90
16315;DHT22;8266;52.150;4.768;2023-02-28T05:34:14;6.90;99.90
16315;DHT22;8266;52.150;4.768;2023-02-28T05:36:41;6.80;99.90
16315;DHT22;8266;52.150;4.768;2023-02-28T05:39:08;6.80;99.90
16315;DHT22;8266;52.150;4.768;2023-02-28T05:41:39;6.80;99.90
16315;DHT22;8266;52.150;4.768;2023-02-28T05:44:06;6.80;99.90
16315;DHT22;8266;52.150;4.768;2023-02-28T05:46:33;6.70;99.90
16315;DHT22;8266;52.150;4.768;2023-02-28T05:49:00;6.70;99.90
16315;DHT22;8266;52.150;4.768;2023-02-28T05:51:29;6.70;99.90
16315;DHT22;8266;52.150;4.768;2023-02-28T05:53:59;6.70;99.90
16315;DHT22;8266;52.150;4.768;2023-02-28T05:56:26;6.60;99.90
16315;DHT22;8266;52.150;4.768;2023-02-28T05:58:53;6.60;99.90
16315;DHT22;8266;52.150;4.768;2023-02-28T06:01:30;6.60;99.90
16315;DHT22;8266;52.150;4.768;2023-02-28T06:03:58;6.50;99.90
16315;DHT22;8266;52.150;4.768;2023-02-28T06:06:26;6.50;99.90
16315;DHT22;8266;52.150;4.768;2023-02-28T06:08:54;6.40;99.90
16315;DHT22;8266;52.150;4.768;2023-02-28T06:11:21;6.40;99.90
16315;DHT22;8266;52.150;4.768;2023-02-28T06:13:53;6.30;99.90
16315;DHT22;8266;52.150;4.768;2023-02-28T06:16:21;6.30;99.90
16315;DHT22;8266;52.150;4.768;2023-02-28T06:18:48;6.20;99.90
16315;DHT22;8266;52.150;4.768;2023-02-28T06:21:15;6.20;99.90
16315;DHT22;8266;52.150;4.768;2023-02-28T06:23:42;6.20;99.90
16315;DHT22;8266;52.150;4.768;2023-02-28T06:26:11;6.10;99.90
16315;DHT22;8266;52.150;4.768;2023-02-28T06:28:38;6.10;99.90
16315;DHT22;8266;52.150;4.768;2023-02-28T06:31:08;6.00;99.90
16315;DHT22;8266;52.150;4.768;2023-02-28T06:33:36;6.00;99.90
16315;DHT22;8266;52.150;4.768;2023-02-28T06:36:04;5.90;99.90
16315;DHT22;8266;52.150;4.768;2023-02-28T06:38:32;5.80;99.90
16315;DHT22;8266;52.150;4.768;2023-02-28T06:41:00;5.70;99.90
16315;DHT22;8266;52.150;4.768;2023-02-28T06:43:31;5.70;99.90
16315;DHT22;8266;52.150;4.768;2023-02-28T06:45:59;5.70;99.90
16315;DHT22;8266;52.150;4.768;2023-02-28T06:48:27;5.60;99.90
16315;DHT22;8266;52.150;4.768;2023-02-28T06:51:01;5.60;99.90
16315;DHT22;8266;52.150;4.768;2023-02-28T06:53:28;5.50;99.90
16315;DHT22;8266;52.150;4.768;2023-02-28T06:55:55;5.50;99.90
16315;DHT22;8266;52.150;4.768;2023-02-28T06:58:22;5.40;99.90
16315;DHT22;8266;52.150;4.768;2023-02-28T07:00:52;5.40;99.90
16315;DHT22;8266;52.150;4.768;2023-02-28T07:03:20;5.30;99.90
16315;DHT22;8266;52.150;4.768;2023-02-28T07:05:47;5.20;99.90
16315;DHT22;8266;52.150;4.768;2023-02-28T07:08:14;5.10;99.90
16315;DHT22;8266;52.150;4.768;2023-02-28T07:10:41;5.10;99.90
16315;DHT22;8266;52.150;4.768;2023-02-28T07:13:09;5.00;99.90
16315;DHT22;8266;52.150;4.768;2023-02-28T07:15:36;4.90;99.90
16315;DHT22;8266;52.150;4.768;2023-02-28T07:18:04;4.80;99.90
16315;DHT22;8266;52.150;4.768;2023-02-28T07:20:31;4.80;99.90
16315;DHT22;8266;52.150;4.768;2023-02-28T07:22:58;4.80;99.90
16315;DHT22;8266;52.150;4.768;2023-02-28T07:25:27;4.70;99.90
16315;DHT22;8266;52.150;4.768;2023-02-28T07:27:57;4.70;99.90
16315;DHT22;8266;52.150;4.768;2023-02-28T07:30:25;4.70;99.90
16315;DHT22;8266;52.150;4.768;2023-02-28T07:32:52;4.70;99.90
16315;DHT22;8266;52.150;4.768;2023-02-28T07:35:23;4.70;99.90
16315;DHT22;8266;52.150;4.768;2023-02-28T07:37:50;4.70;99.90
16315;DHT22;8266;52.150;4.768;2023-02-28T07:40:17;4.70;99.90
16315;DHT22;8266;52.150;4.768;2023-02-28T07:42:44;4.70;99.90
16315;DHT22;8266;52.150;4.768;2023-02-28T07:45:11;4.70;99.90
16315;DHT22;8266;52.150;4.768;2023-02-28T07:47:38;4.70;99.90
16315;DHT22;8266;52.150;4.768;2023-02-28T07:50:06;4.80;99.90
16315;DHT22;8266;52.150;4.768;2023-02-28T07:52:39;4.70;99.90
16315;DHT22;8266;52.150;4.768;2023-02-28T07:55:09;4.80;99.90
16315;DHT22;8266;52.150;4.768;2023-02-28T07:57:36;4.80;99.90
16315;DHT22;8266;52.150;4.768;2023-02-28T08:00:04;4.80;99.90
16315;DHT22;8266;52.150;4.768;2023-02-28T08:02:32;4.80;99.90
16315;DHT22;8266;52.150;4.768;2023-02-28T08:05:00;4.80;99.90
16315;DHT22;8266;52.150;4.768;2023-02-28T08:07:27;4.80;99.90
16315;DHT22;8266;52.150;4.768;2023-02-28T08:09:56;4.80;99.90
16315;DHT22;8266;52.150;4.768;2023-02-28T08:12:22;4.80;99.90
16315;DHT22;8266;52.150;4.768;2023-02-28T08:14:50;4.80;99.90
16315;DHT22;8266;52.150;4.768;2023-02-28T08:17:17;4.80;99.90
16315;DHT22;8266;52.150;4.768;2023-02-28T08:19:45;4.90;99.90
16315;DHT22;8266;52.150;4.768;2023-02-28T08:22:12;4.90;99.90
16315;DHT22;8266;52.150;4.768;2023-02-28T08:24:41;4.90;99.90
16315;DHT22;8266;52.150;4.768;2023-02-28T08:27:09;5.00;99.90
16315;DHT22;8266;52.150;4.768;2023-02-28T08:29:37;5.00;99.90
16315;DHT22;8266;52.150;4.768;2023-02-28T08:32:05;5.00;99.90
16315;DHT22;8266;52.150;4.768;2023-02-28T08:34:32;5.00;99.90
16315;DHT22;8266;52.150;4.768;2023-02-28T08:37:00;5.10;99.90
16315;DHT22;8266;52.150;4.768;2023-02-28T08:39:27;5.20;99.90
16315;DHT22;8266;52.150;4.768;2023-02-28T08:41:54;5.20;99.90
16315;DHT22;8266;52.150;4.768;2023-02-28T08:44:22;5.20;99.90
16315;DHT22;8266;52.150;4.768;2023-02-28T08:46:49;5.20;99.90
16315;DHT22;8266;52.150;4.768;2023-02-28T08:49:16;5.30;99.90
16315;DHT22;8266;52.150;4.768;2023-02-28T08:51:44;5.30;99.90
16315;DHT22;8266;52.150;4.768;2023-02-28T08:54:11;5.30;99.90
16315;DHT22;8266;52.150;4.768;2023-02-28T08:56:38;5.30;99.90
16315;DHT22;8266;52.150;4.768;2023-02-28T08:59:06;5.30;99.90
16315;DHT22;8266;52.150;4.768;2023-02-28T09:01:34;5.40;99.90
16315;DHT22;8266;52.150;4.768;2023-02-28T09:04:02;5.40;99.90
16315;DHT22;8266;52.150;4.768;2023-02-28T09:06:29;5.40;99.90
16315;DHT22;8266;52.150;4.768;2023-02-28T09:08:56;5.50;99.90
16315;DHT22;8266;52.150;4.768;2023-02-28T09:11:25;5.50;99.90
16315;DHT22;8266;52.150;4.768;2023-02-28T09:13:52;5.50;99.90
16315;DHT22;8266;52.150;4.768;2023-02-28T09:16:20;5.60;99.90
16315;DHT22;8266;52.150;4.768;2023-02-28T09:18:49;5.60;99.90
16315;DHT22;8266;52.150;4.768;2023-02-28T09:21:18;5.70;99.90
16315;DHT22;8266;52.150;4.768;2023-02-28T09:23:47;5.70;99.90
16315;DHT22;8266;52.150;4.768;2023-02-28T09:26:16;5.70;99.90
16315;DHT22;8266;52.150;4.768;2023-02-28T09:28:43;5.70;99.90
16315;DHT22;8266;52.150;4.768;2023-02-28T09:31:13;5.80;99.90
16315;DHT22;8266;52.150;4.768;2023-02-28T09:33:40;5.80;99.90
16315;DHT22;8266;52.150;4.768;2023-02-28T09:36:09;5.90;99.90
16315;DHT22;8266;52.150;4.768;2023-02-28T09:38:36;5.90;99.90
16315;DHT22;8266;52.150;4.768;2023-02-28T09:41:10;6.00;99.90
16315;DHT22;8266;52.150;4.768;2023-02-28T09:43:41;6.00;99.90
16315;DHT22;8266;52.150;4.768;2023-02-28T09:46:18;6.00;99.90
16315;DHT22;8266;52.150;4.768;2023-02-28T09:48:48;6.10;99.90
16315;DHT22;8266;52.150;4.768;2023-02-28T09:51:29;6.10;99.90
16315;DHT22;8266;52.150;4.768;2023-02-28T09:53:56;6.10;99.90
16315;DHT22;8266;52.150;4.768;2023-02-28T09:56:27;6.10;99.90
16315;DHT22;8266;52.150;4.768;2023-02-28T09:59:00;6.10;99.90
16315;DHT22;8266;52.150;4.768;2023-02-28T10:01:34;6.10;99.90
16315;DHT22;8266;52.150;4.768;2023-02-28T10:04:08;6.20;99.90
16315;DHT22;8266;52.150;4.768;2023-02-28T10:06:45;6.20;99.90
16315;DHT22;8266;52.150;4.768;2023-02-28T10:09:17;6.20;99.90
16315;DHT22;8266;52.150;4.768;2023-02-28T10:11:46;6.30;99.90
16315;DHT22;8266;52.150;4.768;2023-02-28T10:14:17;6.40;99.90
16315;DHT22;8266;52.150;4.768;2023-02-28T10:16:48;6.40;99.90
16315;DHT22;8266;52.150;4.768;2023-02-28T10:19:23;6.40;99.90
16315;DHT22;8266;52.150;4.768;2023-02-28T10:21:57;6.50;99.90
16315;DHT22;8266;52.150;4.768;2023-02-28T10:24:28;6.50;99.90
16315;DHT22;8266;52.150;4.768;2023-02-28T10:27:12;6.60;99.90
16315;DHT22;8266;52.150;4.768;2023-02-28T10:29:43;6.60;99.90
16315;DHT22;8266;52.150;4.768;2023-02-28T10:32:13;6.70;99.90
16315;DHT22;8266;52.150;4.768;2023-02-28T10:34:41;6.80;99.90
16315;DHT22;8266;52.150;4.768;2023-02-28T10:37:11;6.80;99.90
16315;DHT22;8266;52.150;4.768;2023-02-28T10:39:40;6.80;99.90
16315;DHT22;8266;52.150;4.768;2023-02-28T10:42:20;6.90;99.90
16315;DHT22;8266;52.150;4.768;2023-02-28T10:44:47;6.90;99.90
16315;DHT22;8266;52.150;4.768;2023-02-28T10:47:16;7.10;99.90
16315;DHT22;8266;52.150;4.768;2023-02-28T10:49:47;7.20;99.90
16315;DHT22;8266;52.150;4.768;2023-02-28T10:52:33;7.20;99.90
16315;DHT22;8266;52.150;4.768;2023-02-28T10:55:19;7.30;99.90
16315;DHT22;8266;52.150;4.768;2023-02-28T10:57:47;7.40;99.90
16315;DHT22;8266;52.150;4.768;2023-02-28T11:00:16;7.50;99.90
16315;DHT22;8266;52.150;4.768;2023-02-28T11:02:44;7.60;99.90
16315;DHT22;8266;52.150;4.768;2023-02-28T11:05:29;7.70;99.90
16315;DHT22;8266;52.150;4.768;2023-02-28T11:08:04;7.80;99.90
16315;DHT22;8266;52.150;4.768;2023-02-28T11:10:33;8.00;99.90
16315;DHT22;8266;52.150;4.768;2023-02-28T11:13:01;8.10;99.90
16315;DHT22;8266;52.150;4.768;2023-02-28T11:15:30;8.20;99.90
16315;DHT22;8266;52.150;4.768;2023-02-28T11:18:00;8.30;99.90
16315;DHT22;8266;52.150;4.768;2023-02-28T11:20:30;8.40;99.90
16315;DHT22;8266;52.150;4.768;2023-02-28T11:23:01;8.50;99.90
16315;DHT22;8266;52.150;4.768;2023-02-28T11:25:32;8.50;99.90
16315;DHT22;8266;52.150;4.768;2023-02-28T11:28:03;8.60;99.90
16315;DHT22;8266;52.150;4.768;2023-02-28T11:30:35;8.60;99.90
16315;DHT22;8266;52.150;4.768;2023-02-28T11:33:21;8.60;99.90
16315;DHT22;8266;52.150;4.768;2023-02-28T11:35:50;8.70;99.90
16315;DHT22;8266;52.150;4.768;2023-02-28T11:38:19;8.70;99.90
16315;DHT22;8266;52.150;4.768;2023-02-28T11:40:51;8.70;99.90
16315;DHT22;8266;52.150;4.768;2023-02-28T11:43:30;8.80;99.90
16315;DHT22;8266;52.150;4.768;2023-02-28T11:46:10;8.90;99.90
16315;DHT22;8266;52.150;4.768;2023-02-28T11:48:49;8.90;99.90
16315;DHT22;8266;52.150;4.768;2023-02-28T11:51:23;9.00;99.90
16315;DHT22;8266;52.150;4.768;2023-02-28T11:54:16;9.10;99.90
16315;DHT22;8266;52.150;4.768;2023-02-28T11:56:50;9.10;99.90
16315;DHT22;8266;52.150;4.768;2023-02-28T11:59:45;9.20;99.90
16315;DHT22;8266;52.150;4.768;2023-02-28T12:02:23;9.30;99.90
16315;DHT22;8266;52.150;4.768;2023-02-28T12:05:01;9.30;99.90
16315;DHT22;8266;52.150;4.768;2023-02-28T12:07:40;9.40;99.90
16315;DHT22;8266;52.150;4.768;2023-02-28T12:10:20;9.50;99.90
16315;DHT22;8266;52.150;4.768;2023-02-28T12:13:00;9.50;99.90
16315;DHT22;8266;52.150;4.768;2023-02-28T12:15:44;9.60;99.90
16315;DHT22;8266;52.150;4.768;2023-02-28T12:21:20;9.70;99.90
16315;DHT22;8266;52.150;4.768;2023-02-28T12:24:00;9.70;99.90
16315;DHT22;8266;52.150;4.768;2023-02-28T12:26:36;9.70;99.90
16315;DHT22;8266;52.150;4.768;2023-02-28T12:29:11;9.70;99.90
16315;DHT22;8266;52.150;4.768;2023-02-28T12:31:43;9.80;99.90
16315;DHT22;8266;52.150;4.768;2023-02-28T12:34:18;9.80;99.90
16315;DHT22;8266;52.150;4.768;2023-02-28T12:36:47;9.80;99.90
16315;DHT22;8266;52.150;4.768;2023-02-28T12:39:18;9.80;99.90
16315;DHT22;8266;52.150;4.768;2023-02-28T12:41:51;9.80;99.90
16315;DHT22;8266;52.150;4.768;2023-02-28T12:44:23;9.70;99.90
16315;DHT22;8266;52.150;4.768;2023-02-28T12:46:56;9.70;99.90
16315;DHT22;8266;52.150;4.768;2023-02-28T12:49:29;9.70;99.90
16315;DHT22;8266;52.150;4.768;2023-02-28T12:52:00;9.70;99.90
16315;DHT22;8266;52.150;4.768;2023-02-28T12:54:31;9.70;99.90
16315;DHT22;8266;52.150;4.768;2023-02-28T12:57:08;9.70;99.90
16315;DHT22;8266;52.150;4.768;2023-02-28T12:59:39;9.70;99.90
16315;DHT22;8266;52.150;4.768;2023-02-28T13:05:19;9.80;99.90
16315;DHT22;8266;52.150;4.768;2023-02-28T13:11:28;9.80;99.90
16315;DHT22;8266;52.150;4.768;2023-02-28T13:14:02;9.80;99.90
16315;DHT22;8266;52.150;4.768;2023-02-28T13:16:55;9.90;99.90
16315;DHT22;8266;52.150;4.768;2023-02-28T13:19:25;9.90;99.90
16315;DHT22;8266;52.150;4.768;2023-02-28T13:21:53;10.00;99.90
16315;DHT22;8266;52.150;4.768;2023-02-28T13:27:35;10.10;99.90
16315;DHT22;8266;52.150;4.768;2023-02-28T13:33:34;10.10;99.90
16315;DHT22;8266;52.150;4.768;2023-02-28T13:36:10;10.10;99.90
16315;DHT22;8266;52.150;4.768;2023-02-28T13:38:42;10.20;99.90
16315;DHT22;8266;52.150;4.768;2023-02-28T13:41:43;10.20;99.90
16315;DHT22;8266;52.150;4.768;2023-02-28T13:44:11;10.30;99.90
16315;DHT22;8266;52.150;4.768;2023-02-28T13:49:42;10.50;99.90
16315;DHT22;8266;52.150;4.768;2023-02-28T13:52:14;10.60;99.90
16315;DHT22;8266;52.150;4.768;2023-02-28T13:54:54;10.60;99.90
16315;DHT22;8266;52.150;4.768;2023-02-28T13:57:27;10.60;99.90
16315;DHT22;8266;52.150;4.768;2023-02-28T14:00:07;10.60;99.90
16315;DHT22;8266;52.150;4.768;2023-02-28T14:03:05;10.60;99.90
16315;DHT22;8266;52.150;4.768;2023-02-28T14:05:36;10.60;99.90
16315;DHT22;8266;52.150;4.768;2023-02-28T14:08:06;10.60;99.90
16315;DHT22;8266;52.150;4.768;2023-02-28T14:10:43;10.60;99.90
16315;DHT22;8266;52.150;4.768;2023-02-28T14:13:14;10.70;99.90
16315;DHT22;8266;52.150;4.768;2023-02-28T14:16:03;10.70;99.90
16315;DHT22;8266;52.150;4.768;2023-02-28T14:18:35;10.80;99.90
16315;DHT22;8266;52.150;4.768;2023-02-28T14:21:13;10.80;99.90
16315;DHT22;8266;52.150;4.768;2023-02-28T14:27:20;10.90;99.90
16315;DHT22;8266;52.150;4.768;2023-02-28T14:30:11;10.90;99.90
16315;DHT22;8266;52.150;4.768;2023-02-28T14:32:45;10.90;99.90
16315;DHT22;8266;52.150;4.768;2023-02-28T14:35:22;10.90;99.90
16315;DHT22;8266;52.150;4.768;2023-02-28T14:37:56;10.90;99.90
16315;DHT22;8266;52.150;4.768;2023-02-28T14:40:27;11.00;99.90
16315;DHT22;8266;52.150;4.768;2023-02-28T14:42:57;11.10;99.90
16315;DHT22;8266;52.150;4.768;2023-02-28T14:45:28;11.10;99.90
16315;DHT22;8266;52.150;4.768;2023-02-28T14:47:57;11.10;99.90
16315;DHT22;8266;52.150;4.768;2023-02-28T14:50:35;11.20;99.90
16315;DHT22;8266;52.150;4.768;2023-02-28T14:53:04;11.10;99.90
16315;DHT22;8266;52.150;4.768;2023-02-28T14:55:35;11.10;99.90
16315;DHT22;8266;52.150;4.768;2023-02-28T14:58:04;11.00;99.90
16315;DHT22;8266;52.150;4.768;2023-02-28T15:00:33;11.00;99.90
16315;DHT22;8266;52.150;4.768;2023-02-28T15:03:17;11.00;99.90
16315;DHT22;8266;52.150;4.768;2023-02-28T15:05:52;10.90;99.90
16315;DHT22;8266;52.150;4.768;2023-02-28T15:08:20;10.90;99.90
16315;DHT22;8266;52.150;4.768;2023-02-28T15:10:53;10.90;99.90
16315;DHT22;8266;52.150;4.768;2023-02-28T15:13:21;10.80;99.90
16315;DHT22;8266;52.150;4.768;2023-02-28T15:15:52;10.80;99.90
16315;DHT22;8266;52.150;4.768;2023-02-28T15:18:30;10.70;99.90
16315;DHT22;8266;52.150;4.768;2023-02-28T15:21:03;10.70;99.90
16315;DHT22;8266;52.150;4.768;2023-02-28T15:23:34;10.70;99.90
16315;DHT22;8266;52.150;4.768;2023-02-28T15:26:02;10.60;99.90
16315;DHT22;8266;52.150;4.768;2023-02-28T15:28:30;10.60;99.90
16315;DHT22;8266;52.150;4.768;2023-02-28T15:30:59;10.60;99.90
16315;DHT22;8266;52.150;4.768;2023-02-28T15:33:28;10.50;99.90
16315;DHT22;8266;52.150;4.768;2023-02-28T15:36:09;10.50;99.90
16315;DHT22;8266;52.150;4.768;2023-02-28T15:38:39;10.50;99.90
16315;DHT22;8266;52.150;4.768;2023-02-28T15:41:23;10.50;99.90
16315;DHT22;8266;52.150;4.768;2023-02-28T15:44:15;10.50;99.90
16315;DHT22;8266;52.150;4.768;2023-02-28T15:46:44;10.50;99.90
16315;DHT22;8266;52.150;4.768;2023-02-28T15:49:21;10.40;99.90
16315;DHT22;8266;52.150;4.768;2023-02-28T15:51:50;10.40;99.90
16315;DHT22;8266;52.150;4.768;2023-02-28T15:54:21;10.30;99.90
16315;DHT22;8266;52.150;4.768;2023-02-28T15:56:51;10.30;99.90
16315;DHT22;8266;52.150;4.768;2023-02-28T15:59:21;10.20;99.90
16315;DHT22;8266;52.150;4.768;2023-02-28T16:02:13;10.20;99.90
16315;DHT22;8266;52.150;4.768;2023-02-28T16:04:56;10.20;99.90
16315;DHT22;8266;52.150;4.768;2023-02-28T16:07:23;10.10;99.90
16315;DHT22;8266;52.150;4.768;2023-02-28T16:09:52;10.10;99.90
16315;DHT22;8266;52.150;4.768;2023-02-28T16:12:20;10.20;99.90
16315;DHT22;8266;52.150;4.768;2023-02-28T16:14:51;10.20;99.90
16315;DHT22;8266;52.150;4.768;2023-02-28T16:17:20;10.20;99.90
16315;DHT22;8266;52.150;4.768;2023-02-28T16:19:48;10.30;99.90
16315;DHT22;8266;52.150;4.768;2023-02-28T16:22:15;10.40;99.90
16315;DHT22;8266;52.150;4.768;2023-02-28T16:24:42;10.40;99.90
16315;DHT22;8266;52.150;4.768;2023-02-28T16:27:16;10.50;99.90
16315;DHT22;8266;52.150;4.768;2023-02-28T16:29:44;10.50;99.90
16315;DHT22;8266;52.150;4.768;2023-02-28T16:32:12;10.60;99.90
16315;DHT22;8266;52.150;4.768;2023-02-28T16:34:40;10.50;99.90
16315;DHT22;8266;52.150;4.768;2023-02-28T16:37:14;10.50;99.90
16315;DHT22;8266;52.150;4.768;2023-02-28T16:39:41;10.30;99.90
16315;DHT22;8266;52.150;4.768;2023-02-28T16:42:16;10.20;99.90
16315;DHT22;8266;52.150;4.768;2023-02-28T16:44:46;10.10;99.90
16315;DHT22;8266;52.150;4.768;2023-02-28T16:47:13;10.00;99.90
16315;DHT22;8266;52.150;4.768;2023-02-28T16:49:40;9.90;99.90
16315;DHT22;8266;52.150;4.768;2023-02-28T16:52:08;9.80;99.90